Time;durP1;ratioP1;P1;durP2;ratioP2;P2;SDS_P1;SDS_P2;PMS_P1;PMS_P2;Temp;Humidity;BMP_temperature;BMP_pressure;BME280_temperature;BME280_humidity;BME280_pressure;Samples;Min_cycle;Max_cycle;Signal;HPM_P1;HPM_P2
2023/08/19 00:02:28;;;;;;;6.80;6.30;;;26.00;99.90;;;;;;6216688;28;89193;-75
2023/08/19 00:05:30;;;;;;;7.45;6.85;;;26.00;99.90;;;;;;6222545;28;89074;-75
2023/08/19 00:08:33;;;;;;;7.88;7.28;;;26.00;99.90;;;;;;6229587;28;89053;-75
2023/08/19 00:11:35;;;;;;;8.20;7.60;;;25.90;99.90;;;;;;6222283;28;89053;-75
2023/08/19 00:14:37;;;;;;;7.68;7.07;;;25.90;99.90;;;;;;6216260;28;89265;-74
2023/08/19 00:17:41;;;;;;;7.80;7.10;;;25.90;99.90;;;;;;6231021;28;89133;-74
2023/08/19 00:20:42;;;;;;;7.22;6.72;;;25.90;99.90;;;;;;6238955;28;89754;-75
2023/08/19 00:23:44;;;;;;;7.88;7.28;;;25.90;99.90;;;;;;6227344;28;89609;-75
2023/08/19 00:26:46;;;;;;;8.80;8.00;;;25.90;99.90;;;;;;6229882;28;89014;-75
2023/08/19 00:29:48;;;;;;;8.73;8.02;;;25.90;99.90;;;;;;6223816;28;90023;-75
2023/08/19 00:32:52;;;;;;;8.10;7.43;;;25.90;99.90;;;;;;6221966;28;89043;-75
2023/08/19 00:35:54;;;;;;;8.20;7.50;;;25.90;99.90;;;;;;6224515;28;89497;-75
2023/08/19 00:38:56;;;;;;;8.57;7.88;;;25.90;99.90;;;;;;6221594;28;89156;-74
2023/08/19 00:41:58;;;;;;;8.68;7.88;;;25.90;99.90;;;;;;6221835;28;88027;-75
2023/08/19 00:45:00;;;;;;;7.57;6.93;;;25.90;99.90;;;;;;6223984;28;89110;-74
2023/08/19 00:48:03;;;;;;;8.23;7.53;;;25.90;99.90;;;;;;6228917;28;89095;-74
2023/08/19 00:51:06;;;;;;;8.10;7.43;;;25.80;99.90;;;;;;6229312;28;88060;-75
2023/08/19 00:54:08;;;;;;;7.30;6.70;;;25.90;99.90;;;;;;6226417;28;89096;-74
2023/08/19 00:57:10;;;;;;;8.80;8.00;;;25.90;99.90;;;;;;6220419;28;89444;-76
2023/08/19 01:00:13;;;;;;;8.00;7.40;;;25.80;99.90;;;;;;6230115;28;88924;-76
2023/08/19 01:03:17;;;;;;;8.52;7.82;;;25.80;99.90;;;;;;6226927;28;89069;-75
2023/08/19 01:06:26;;;;;;;7.80;7.13;;;25.80;99.90;;;;;;6218144;28;89086;-75
2023/08/19 01:09:43;;;;;;;8.27;7.57;;;25.80;99.90;;;;;;6226295;28;89038;-75
2023/08/19 01:12:52;;;;;;;7.97;7.28;;;25.80;99.90;;;;;;6227725;28;89236;-75
2023/08/19 01:16:00;;;;;;;8.30;7.60;;;25.80;99.90;;;;;;6216423;28;90207;-75
2023/08/19 01:19:07;;;;;;;7.85;7.25;;;25.80;99.90;;;;;;6227966;28;89107;-76
2023/08/19 01:22:16;;;;;;;8.52;7.68;;;25.80;99.90;;;;;;6230526;28;87319;-75
2023/08/19 01:25:20;;;;;;;7.95;7.35;;;25.80;99.90;;;;;;6238416;28;89673;-75
2023/08/19 01:28:22;;;;;;;8.63;7.88;;;25.80;99.90;;;;;;6228791;28;89537;-77
2023/08/19 01:31:24;;;;;;;8.68;7.88;;;25.80;99.90;;;;;;6229187;28;90310;-76
2023/08/19 01:34:27;;;;;;;8.00;7.30;;;25.80;99.90;;;;;;6229759;28;89976;-75
2023/08/19 01:37:35;;;;;;;7.95;7.35;;;25.80;99.90;;;;;;6221695;28;89334;-74
2023/08/19 01:40:39;;;;;;;8.75;7.95;;;25.80;99.90;;;;;;6221256;28;89110;-74
2023/08/19 01:43:42;;;;;;;9.52;8.68;;;25.80;99.90;;;;;;6225515;28;87876;-74
2023/08/19 01:46:44;;;;;;;8.82;8.07;;;25.80;99.90;;;;;;6222911;28;89163;-74
2023/08/19 01:49:46;;;;;;;8.82;8.10;;;25.80;99.90;;;;;;6225762;28;89392;-75
2023/08/19 01:52:49;;;;;;;8.57;7.78;;;25.80;99.90;;;;;;6228735;28;88347;-74
2023/08/19 01:55:52;;;;;;;8.77;8.07;;;25.80;99.90;;;;;;6225975;28;89072;-74
2023/08/19 01:58:56;;;;;;;8.75;8.05;;;25.80;99.90;;;;;;6222519;28;90438;-75
2023/08/19 02:01:58;;;;;;;9.00;8.20;;;25.80;99.90;;;;;;6220719;28;90163;-73
2023/08/19 02:05:00;;;;;;;8.07;7.38;;;25.70;99.90;;;;;;6225290;28;89071;-74
2023/08/19 02:08:02;;;;;;;8.93;8.13;;;25.70;99.90;;;;;;6227320;28;89485;-74
2023/08/19 02:11:05;;;;;;;9.02;8.32;;;25.70;99.90;;;;;;6227419;28;89156;-75
2023/08/19 02:14:08;;;;;;;8.65;7.85;;;25.70;99.90;;;;;;6224957;28;88450;-74
2023/08/19 02:17:10;;;;;;;9.20;8.40;;;25.70;99.90;;;;;;6225710;28;87963;-74
2023/08/19 02:20:13;;;;;;;8.30;7.60;;;25.70;99.90;;;;;;6231272;28;90467;-74
2023/08/19 02:23:15;;;;;;;8.80;8.10;;;25.70;99.90;;;;;;6226386;28;88273;-73
2023/08/19 02:26:19;;;;;;;8.90;8.20;;;25.70;99.90;;;;;;6226893;28;89074;-73
2023/08/19 02:29:21;;;;;;;8.57;7.88;;;25.70;99.90;;;;;;6227817;28;89071;-75
2023/08/19 02:32:23;;;;;;;8.90;8.10;;;25.70;99.90;;;;;;6228524;28;90263;-74
2023/08/19 02:35:25;;;;;;;8.55;7.75;;;25.70;99.90;;;;;;6226134;28;89577;-73
2023/08/19 02:38:27;;;;;;;9.05;8.35;;;25.70;99.90;;;;;;6227028;28;89018;-73
2023/08/19 02:41:30;;;;;;;9.00;8.20;;;25.70;99.90;;;;;;6227900;28;89032;-75
2023/08/19 02:44:32;;;;;;;9.63;8.73;;;25.70;99.90;;;;;;6222537;28;88996;-74
2023/08/19 02:47:34;;;;;;;8.75;8.05;;;25.70;99.90;;;;;;6220098;28;89118;-75
2023/08/19 02:50:36;;;;;;;9.32;8.55;;;25.70;99.90;;;;;;6225788;28;89080;-76
2023/08/19 02:53:38;;;;;;;8.55;7.85;;;25.60;99.90;;;;;;6231802;28;87550;-75
2023/08/19 02:56:41;;;;;;;8.65;7.93;;;25.70;99.90;;;;;;6224495;28;89072;-75
2023/08/19 02:59:43;;;;;;;8.18;7.47;;;25.60;99.90;;;;;;6226553;28;88134;-76
2023/08/19 03:02:46;;;;;;;8.85;8.15;;;25.70;99.90;;;;;;6226559;28;91921;-74
2023/08/19 03:05:48;;;;;;;8.40;7.70;;;25.60;99.90;;;;;;6228750;28;89060;-74
2023/08/19 03:08:50;;;;;;;8.75;8.05;;;25.60;99.90;;;;;;6221555;28;89015;-75
2023/08/19 03:11:54;;;;;;;9.10;8.30;;;25.70;99.90;;;;;;6223453;28;89051;-75
2023/08/19 03:14:56;;;;;;;8.68;7.97;;;25.60;99.90;;;;;;6225511;28;89486;-76
2023/08/19 03:17:58;;;;;;;8.75;8.05;;;25.60;99.90;;;;;;6229406;28;89061;-74
2023/08/19 03:21:01;;;;;;;8.85;7.95;;;25.60;99.90;;;;;;6225963;28;89135;-75
2023/08/19 03:24:03;;;;;;;8.68;7.82;;;25.60;99.90;;;;;;6223540;28;88330;-75
2023/08/19 03:27:07;;;;;;;8.38;7.65;;;25.60;99.90;;;;;;6225987;28;89363;-76
2023/08/19 03:30:10;;;;;;;8.70;8.00;;;25.60;99.90;;;;;;6219352;28;90623;-74
2023/08/19 03:33:12;;;;;;;8.68;7.88;;;25.60;99.90;;;;;;6226358;28;88915;-77
2023/08/19 03:36:13;;;;;;;8.55;7.85;;;25.60;99.90;;;;;;6229079;28;89092;-76
2023/08/19 03:39:15;;;;;;;8.60;7.78;;;25.60;99.90;;;;;;6227345;28;89391;-76
2023/08/19 03:42:19;;;;;;;8.50;7.80;;;25.50;99.90;;;;;;6223121;28;88500;-77
2023/08/19 03:45:21;;;;;;;8.30;7.60;;;25.50;99.90;;;;;;6227495;28;89057;-73
2023/08/19 03:48:23;;;;;;;8.45;7.72;;;25.50;99.90;;;;;;6231979;28;89094;-75
2023/08/19 03:51:25;;;;;;;8.60;7.90;;;25.50;99.90;;;;;;6217141;28;89150;-75
2023/08/19 03:54:27;;;;;;;9.30;8.48;;;25.60;99.90;;;;;;6225854;28;88463;-75
2023/08/19 03:57:30;;;;;;;9.52;8.65;;;25.50;99.90;;;;;;6222112;28;89127;-75
2023/08/19 04:00:32;;;;;;;8.38;7.68;;;25.50;99.90;;;;;;6225847;28;89115;-75
2023/08/19 04:03:35;;;;;;;8.45;7.72;;;25.50;99.90;;;;;;6223546;28;89720;-75
2023/08/19 04:06:37;;;;;;;9.10;8.30;;;25.50;99.90;;;;;;6216474;28;89174;-75
2023/08/19 04:09:39;;;;;;;8.95;8.15;;;25.50;99.90;;;;;;6222938;28;88163;-75
2023/08/19 04:12:42;;;;;;;9.30;8.40;;;25.50;99.90;;;;;;6209031;28;89821;-75
2023/08/19 04:15:44;;;;;;;8.90;8.10;;;25.50;99.90;;;;;;6228224;28;88980;-75
2023/08/19 04:18:46;;;;;;;7.97;7.28;;;25.50;99.90;;;;;;6227496;28;89883;-75
2023/08/19 04:21:48;;;;;;;9.13;8.32;;;25.50;99.90;;;;;;6208259;28;87952;-76
2023/08/19 04:24:52;;;;;;;9.10;8.20;;;25.50;99.90;;;;;;6203292;28;88644;-77
2023/08/19 04:27:55;;;;;;;9.52;8.65;;;25.50;99.90;;;;;;6202894;28;88070;-75
2023/08/19 04:31:03;;;;;;;8.90;8.02;;;25.50;99.90;;;;;;6199604;28;89521;-75
2023/08/19 04:34:05;;;;;;;8.77;7.90;;;25.50;99.90;;;;;;6187892;28;91223;-74
2023/08/19 04:37:08;;;;;;;8.05;7.45;;;25.50;99.90;;;;;;6203510;28;89408;-74
2023/08/19 04:40:11;;;;;;;8.52;7.82;;;25.50;99.90;;;;;;6199246;28;89174;-74
2023/08/19 04:43:15;;;;;;;8.60;7.72;;;25.50;99.90;;;;;;6192141;28;89159;-75
2023/08/19 04:46:17;;;;;;;8.38;7.68;;;25.50;99.90;;;;;;6202802;28;89089;-76
2023/08/19 04:49:20;;;;;;;8.88;8.07;;;25.50;99.90;;;;;;6204755;28;88900;-77
2023/08/19 04:52:22;;;;;;;7.80;7.20;;;25.50;99.90;;;;;;6201714;28;89490;-74
2023/08/19 04:55:26;;;;;;;8.07;7.47;;;25.50;99.90;;;;;;6200866;28;87292;-73
2023/08/19 04:58:29;;;;;;;9.00;7.97;;;25.50;99.90;;;;;;6200048;28;88496;-72
2023/08/19 05:01:32;;;;;;;7.75;7.15;;;25.40;99.90;;;;;;6209615;28;89056;-72
2023/08/19 05:04:34;;;;;;;8.55;7.85;;;25.50;99.90;;;;;;6204889;28;90292;-72
2023/08/19 05:07:36;;;;;;;9.15;8.25;;;25.50;99.90;;;;;;6205541;28;89025;-70
2023/08/19 05:10:37;;;;;;;8.73;8.02;;;25.50;99.90;;;;;;6205941;28;89405;-71
2023/08/19 05:13:42;;;;;;;9.18;8.27;;;25.50;99.90;;;;;;6198622;28;89093;-72
2023/08/19 05:16:44;;;;;;;9.82;8.93;;;25.50;99.90;;;;;;6201519;28;89169;-71
2023/08/19 05:19:46;;;;;;;8.88;8.02;;;25.50;99.90;;;;;;6199481;28;88582;-70
2023/08/19 05:22:48;;;;;;;8.63;7.90;;;25.50;99.90;;;;;;6204516;28;89114;-69
2023/08/19 05:25:50;;;;;;;9.73;8.93;;;25.50;99.90;;;;;;6209735;28;88340;-70
2023/08/19 05:28:54;;;;;;;9.32;8.55;;;25.50;99.90;;;;;;6204220;28;89069;-69
2023/08/19 05:31:57;;;;;;;9.68;8.77;;;25.50;99.90;;;;;;6209482;28;89102;-69
2023/08/19 05:34:59;;;;;;;11.45;8.93;;;25.50;99.90;;;;;;6208931;28;89894;-69
2023/08/19 05:38:01;;;;;;;9.80;8.88;;;25.50;99.90;;;;;;6200394;28;89429;-69
2023/08/19 05:41:03;;;;;;;9.52;8.68;;;25.50;99.90;;;;;;6203170;28;89054;-69
2023/08/19 05:44:07;;;;;;;9.80;8.90;;;25.50;99.90;;;;;;6194746;28;89125;-69
2023/08/19 05:47:09;;;;;;;9.60;8.70;;;25.50;99.90;;;;;;6207955;28;89350;-69
2023/08/19 05:50:11;;;;;;;9.15;8.35;;;25.50;99.90;;;;;;6198992;28;88746;-69
2023/08/19 05:53:13;;;;;;;9.38;8.57;;;25.50;99.90;;;;;;6202780;28;88758;-69
2023/08/19 05:56:15;;;;;;;9.27;8.48;;;25.50;99.90;;;;;;6195589;28;88328;-69
2023/08/19 05:59:18;;;;;;;9.95;9.02;;;25.50;99.90;;;;;;6208046;28;91537;-69
2023/08/19 06:02:20;;;;;;;9.07;8.18;;;25.50;99.90;;;;;;6202450;28;89072;-68
2023/08/19 06:05:22;;;;;;;8.98;8.10;;;25.60;99.90;;;;;;6199235;28;89112;-69
2023/08/19 06:08:25;;;;;;;8.88;8.18;;;25.50;99.90;;;;;;6200133;28;89038;-68
2023/08/19 06:11:26;;;;;;;9.30;8.43;;;25.50;99.90;;;;;;6204657;28;89279;-69
2023/08/19 06:14:30;;;;;;;8.95;8.05;;;25.60;99.90;;;;;;6202170;28;88968;-68
2023/08/19 06:17:32;;;;;;;8.43;7.72;;;25.50;99.90;;;;;;6196338;28;89102;-68
2023/08/19 06:20:34;;;;;;;8.70;7.88;;;25.50;99.90;;;;;;6197147;28;89126;-69
2023/08/19 06:23:36;;;;;;;10.07;8.13;;;25.50;99.90;;;;;;6205664;28;89807;-68
2023/08/19 06:26:38;;;;;;;10.75;8.13;;;25.50;99.90;;;;;;6199000;28;88610;-69
2023/08/19 06:29:41;;;;;;;10.82;8.05;;;25.50;99.90;;;;;;6199442;28;88000;-69
2023/08/19 06:32:45;;;;;;;7.78;7.13;;;25.60;99.90;;;;;;6194356;28;88725;-72
2023/08/19 06:35:49;;;;;;;8.20;7.22;;;25.60;99.90;;;;;;6202988;28;89069;-69
2023/08/19 06:38:59;;;;;;;9.20;7.50;;;25.60;99.90;;;;;;6205230;28;89196;-69
2023/08/19 06:42:02;;;;;;;8.27;7.22;;;25.60;99.90;;;;;;6197836;28;89263;-70
2023/08/19 06:45:08;;;;;;;7.53;6.75;;;25.60;99.90;;;;;;6194461;28;89000;-70
2023/08/19 06:48:11;;;;;;;8.05;7.25;;;25.50;99.90;;;;;;6195734;28;87891;-70
2023/08/19 06:51:13;;;;;;;7.63;6.93;;;25.50;99.90;;;;;;6199759;28;89011;-70
2023/08/19 06:54:16;;;;;;;7.68;6.97;;;25.50;99.90;;;;;;6194290;28;89128;-70
2023/08/19 06:57:28;;;;;;;7.30;6.70;;;25.60;99.90;;;;;;6191051;28;88432;-69
2023/08/19 07:00:33;;;;;;;8.00;6.70;;;25.60;99.90;;;;;;6209121;28;89001;-70
2023/08/19 07:03:37;;;;;;;8.20;6.30;;;25.60;99.90;;;;;;6193598;28;89528;-70
2023/08/19 07:06:40;;;;;;;7.20;6.47;;;25.60;99.90;;;;;;6189158;28;90081;-69
2023/08/19 07:09:43;;;;;;;6.70;6.10;;;25.50;99.90;;;;;;6203020;28;89122;-71
2023/08/19 07:12:45;;;;;;;6.88;6.25;;;25.50;99.90;;;;;;6204745;28;89318;-70
2023/08/19 07:15:57;;;;;;;6.90;6.05;;;25.60;99.90;;;;;;6198323;28;88605;-69
2023/08/19 07:19:03;;;;;;;7.55;6.80;;;25.60;99.90;;;;;;6194525;28;89042;-69
2023/08/19 07:22:06;;;;;;;9.05;7.00;;;25.50;99.90;;;;;;6197291;28;89061;-69
2023/08/19 07:25:09;;;;;;;8.65;7.18;;;25.60;99.90;;;;;;6195513;28;89155;-69
2023/08/19 07:28:14;;;;;;;10.07;6.95;;;25.60;99.90;;;;;;6200641;28;88429;-69
2023/08/19 07:31:18;;;;;;;9.10;7.10;;;25.60;99.90;;;;;;6206139;28;89357;-69
2023/08/19 07:34:20;;;;;;;8.18;6.15;;;25.60;99.90;;;;;;6200977;28;89320;-69
2023/08/19 07:37:22;;;;;;;8.60;6.68;;;25.60;99.90;;;;;;6184473;28;90962;-69
2023/08/19 07:40:24;;;;;;;8.00;6.88;;;25.60;99.90;;;;;;6205068;28;88891;-70
2023/08/19 07:43:26;;;;;;;7.68;6.90;;;25.60;99.90;;;;;;6207357;28;91248;-69
2023/08/19 07:46:29;;;;;;;8.32;7.53;;;25.60;99.90;;;;;;6194684;28;89021;-69
2023/08/19 07:49:31;;;;;;;7.75;7.07;;;25.60;99.90;;;;;;6198336;28;87955;-69
2023/08/19 07:52:33;;;;;;;9.18;7.03;;;25.60;99.90;;;;;;6205536;28;89055;-69
2023/08/19 07:55:35;;;;;;;7.45;6.85;;;25.60;99.90;;;;;;6198456;28;88990;-69
2023/08/19 07:58:37;;;;;;;8.75;7.10;;;25.60;99.90;;;;;;6184472;28;88413;-69
2023/08/19 08:01:40;;;;;;;7.82;7.13;;;25.60;99.90;;;;;;6185855;28;89390;-69
2023/08/19 08:04:44;;;;;;;8.32;7.07;;;25.60;99.90;;;;;;6189206;28;89474;-69
2023/08/19 08:07:46;;;;;;;7.35;6.63;;;25.60;99.90;;;;;;6182453;28;90124;-69
2023/08/19 08:10:48;;;;;;;7.65;6.85;;;25.60;99.90;;;;;;6205988;28;89077;-69
2023/08/19 08:13:49;;;;;;;7.32;6.60;;;25.70;99.90;;;;;;6193518;28;89121;-69
2023/08/19 08:16:56;;;;;;;7.43;6.70;;;25.70;99.90;;;;;;6205599;28;89101;-69
2023/08/19 08:19:58;;;;;;;7.53;6.70;;;25.60;99.90;;;;;;6199835;28;88010;-70
2023/08/19 08:23:00;;;;;;;8.00;7.00;;;25.70;99.90;;;;;;6197731;28;89291;-69
2023/08/19 08:26:05;;;;;;;9.60;7.45;;;25.60;99.90;;;;;;6189864;28;89535;-69
2023/08/19 08:29:06;;;;;;;7.95;7.20;;;25.70;99.90;;;;;;6194921;28;88393;-69
2023/08/19 08:32:10;;;;;;;8.32;7.10;;;25.60;99.90;;;;;;6206165;28;89074;-69
2023/08/19 08:35:12;;;;;;;7.60;6.80;;;25.60;99.90;;;;;;6199881;28;88990;-69
2023/08/19 08:38:14;;;;;;;7.93;7.15;;;25.60;99.90;;;;;;6185300;28;90124;-69
2023/08/19 08:41:16;;;;;;;7.95;7.15;;;25.60;99.90;;;;;;6196499;28;89152;-69
2023/08/19 08:44:18;;;;;;;7.60;6.90;;;25.70;99.90;;;;;;6199798;28;89215;-69
2023/08/19 08:47:22;;;;;;;7.43;6.82;;;25.60;99.90;;;;;;6199935;28;89590;-69
2023/08/19 08:50:25;;;;;;;7.32;6.60;;;25.70;99.90;;;;;;6190905;28;89102;-69
2023/08/19 08:53:28;;;;;;;7.53;6.82;;;25.70;99.90;;;;;;6189904;28;88008;-69
2023/08/19 08:56:30;;;;;;;8.18;7.38;;;25.70;99.90;;;;;;6203177;28;88907;-69
2023/08/19 08:59:32;;;;;;;8.18;7.13;;;25.70;99.90;;;;;;6197645;28;88401;-69
2023/08/19 09:02:37;;;;;;;8.25;7.43;;;25.70;99.90;;;;;;6207687;28;89446;-69
2023/08/19 09:05:41;;;;;;;7.45;6.75;;;25.70;99.90;;;;;;6207175;28;89366;-69
2023/08/19 09:08:47;;;;;;;7.75;7.15;;;25.70;99.90;;;;;;6189809;28;90010;-69
2023/08/19 09:11:51;;;;;;;8.05;7.30;;;25.60;99.90;;;;;;6191412;28;87998;-69
2023/08/19 09:14:56;;;;;;;7.72;7.00;;;25.70;99.90;;;;;;6188847;28;89257;-69
2023/08/19 09:18:01;;;;;;;7.88;7.18;;;25.70;99.90;;;;;;6199959;28;89362;-69
2023/08/19 09:21:03;;;;;;;8.02;7.30;;;25.70;99.90;;;;;;6194717;28;89065;-70
2023/08/19 09:24:06;;;;;;;7.68;6.97;;;25.70;99.90;;;;;;6198896;28;88993;-69
2023/08/19 09:27:08;;;;;;;8.43;6.90;;;25.70;99.90;;;;;;6185388;28;88672;-69
2023/08/19 09:30:14;;;;;;;7.88;7.10;;;25.70;99.90;;;;;;6190544;28;87573;-70
2023/08/19 09:33:20;;;;;;;7.93;7.22;;;25.70;99.90;;;;;;6184056;28;89438;-70
2023/08/19 09:36:26;;;;;;;8.02;7.28;;;25.70;99.90;;;;;;6184871;28;89046;-70
2023/08/19 09:39:34;;;;;;;7.63;7.03;;;25.70;99.90;;;;;;6196913;28;90121;-69
2023/08/19 09:42:36;;;;;;;7.78;7.07;;;25.70;99.90;;;;;;6184683;28;89076;-69
2023/08/19 09:45:39;;;;;;;7.80;7.20;;;25.70;99.90;;;;;;6202214;28;89409;-69
2023/08/19 09:48:52;;;;;;;8.18;6.95;;;25.70;99.90;;;;;;6207648;28;89081;-70
2023/08/19 09:51:55;;;;;;;7.72;7.13;;;25.80;99.90;;;;;;6207833;28;89364;-70
2023/08/19 09:54:57;;;;;;;7.97;7.28;;;25.70;99.90;;;;;;6206803;28;87911;-70
2023/08/19 09:58:00;;;;;;;8.45;7.68;;;25.70;99.90;;;;;;6193177;28;89012;-69
2023/08/19 10:01:02;;;;;;;8.18;7.18;;;25.70;99.90;;;;;;6204699;28;88277;-69
2023/08/19 10:04:06;;;;;;;8.43;7.63;;;25.80;99.90;;;;;;6201476;28;89120;-70
2023/08/19 10:07:10;;;;;;;7.90;7.20;;;25.80;99.90;;;;;;6185069;28;89071;-70
2023/08/19 10:10:14;;;;;;;7.63;7.03;;;25.70;99.90;;;;;;6188311;28;90278;-69
2023/08/19 10:13:17;;;;;;;7.25;6.60;;;25.70;99.90;;;;;;6204443;28;88102;-70
2023/08/19 10:16:24;;;;;;;8.18;7.47;;;25.80;99.90;;;;;;6193117;28;89105;-69
2023/08/19 10:19:29;;;;;;;8.18;7.40;;;25.80;99.90;;;;;;6194174;28;89072;-69
2023/08/19 10:22:33;;;;;;;7.60;6.90;;;25.70;99.90;;;;;;6201109;28;89110;-69
2023/08/19 10:25:35;;;;;;;7.75;6.97;;;25.80;99.90;;;;;;6188768;28;89288;-69
2023/08/19 10:28:37;;;;;;;8.00;7.35;;;25.80;99.90;;;;;;6205429;28;89367;-69
2023/08/19 10:31:40;;;;;;;7.95;7.25;;;25.70;99.90;;;;;;6186212;28;88705;-69
2023/08/19 10:34:48;;;;;;;8.10;7.43;;;25.80;99.90;;;;;;6183866;28;87959;-69
2023/08/19 10:37:50;;;;;;;8.10;7.40;;;25.80;99.90;;;;;;6183033;28;89053;-70
2023/08/19 10:41:02;;;;;;;7.78;7.07;;;25.80;99.90;;;;;;6195193;28;91068;-69
2023/08/19 10:44:07;;;;;;;7.63;6.93;;;25.80;99.90;;;;;;6200819;28;89020;-69
2023/08/19 10:47:10;;;;;;;7.85;7.15;;;25.80;99.90;;;;;;6190854;28;88956;-69
2023/08/19 10:50:14;;;;;;;7.72;7.13;;;25.80;99.90;;;;;;6193933;28;88990;-69
2023/08/19 10:53:21;;;;;;;8.18;7.47;;;25.80;99.90;;;;;;6191177;28;89176;-69
2023/08/19 10:56:23;;;;;;;7.90;7.25;;;25.80;99.90;;;;;;6206480;28;89039;-70
2023/08/19 10:59:26;;;;;;;8.13;7.43;;;25.80;99.90;;;;;;6206827;28;88636;-70
2023/08/19 11:02:30;;;;;;;8.15;7.45;;;25.80;99.90;;;;;;6195986;28;88293;-69
2023/08/19 11:05:33;;;;;;;7.85;7.18;;;25.80;99.90;;;;;;6184809;28;88130;-70
2023/08/19 11:08:43;;;;;;;7.38;6.70;;;25.80;99.90;;;;;;6195181;28;88896;-70
2023/08/19 11:11:45;;;;;;;7.60;7.00;;;25.80;99.90;;;;;;6197165;28;89273;-70
2023/08/19 11:14:48;;;;;;;8.23;7.43;;;25.80;99.90;;;;;;6205006;28;89646;-70
2023/08/19 11:17:50;;;;;;;8.10;7.40;;;25.80;99.90;;;;;;6196163;28;89132;-70
2023/08/19 11:20:55;;;;;;;7.57;6.97;;;25.80;99.90;;;;;;6219355;28;89472;-70
2023/08/19 11:23:57;;;;;;;7.70;7.10;;;25.80;99.90;;;;;;6220317;28;89425;-70
2023/08/19 11:27:00;;;;;;;8.20;7.50;;;25.80;99.90;;;;;;6220926;28;89007;-70
2023/08/19 11:30:03;;;;;;;7.53;6.82;;;25.80;99.90;;;;;;6218311;28;89106;-69
2023/08/19 11:33:06;;;;;;;7.68;7.10;;;25.80;99.90;;;;;;6212420;28;87153;-70
2023/08/19 11:36:09;;;;;;;7.38;6.78;;;25.80;99.90;;;;;;6213127;28;89065;-70
2023/08/19 11:39:12;;;;;;;7.63;6.93;;;25.80;99.90;;;;;;6219914;28;89462;-70
2023/08/19 11:42:14;;;;;;;7.72;7.03;;;25.80;99.90;;;;;;6209463;28;90054;-70
2023/08/19 11:45:16;;;;;;;7.15;6.55;;;25.80;99.90;;;;;;6231268;28;89145;-70
2023/08/19 11:48:19;;;;;;;7.90;7.30;;;25.80;99.90;;;;;;6230858;28;89080;-70
2023/08/19 11:51:22;;;;;;;7.68;7.03;;;25.90;99.90;;;;;;6219512;28;89015;-70
2023/08/19 11:54:24;;;;;;;7.13;6.63;;;25.80;99.90;;;;;;6228179;28;89475;-70
2023/08/19 11:57:26;;;;;;;7.70;7.10;;;25.80;99.90;;;;;;6218592;28;89005;-70
2023/08/19 12:00:28;;;;;;;7.30;6.70;;;25.90;99.90;;;;;;6230908;28;89090;-70
2023/08/19 12:03:30;;;;;;;7.60;7.00;;;25.80;99.90;;;;;;6216337;28;89252;-70
2023/08/19 12:06:34;;;;;;;7.50;6.90;;;25.80;99.90;;;;;;6212114;28;89449;-70
2023/08/19 12:09:37;;;;;;;7.53;6.93;;;25.80;99.90;;;;;;6220347;28;89293;-70
2023/08/19 12:12:39;;;;;;;7.38;6.78;;;25.80;99.90;;;;;;6218076;28;90035;-70
2023/08/19 12:15:41;;;;;;;7.18;6.57;;;25.80;99.90;;;;;;6206428;28;88991;-70
2023/08/19 12:18:43;;;;;;;7.40;6.80;;;25.80;99.90;;;;;;6226492;28;89267;-70
2023/08/19 12:21:46;;;;;;;7.47;6.88;;;25.80;99.90;;;;;;6228496;28;89267;-70
2023/08/19 12:24:48;;;;;;;7.65;7.05;;;25.80;99.90;;;;;;6224592;28;87965;-70
2023/08/19 12:27:51;;;;;;;7.40;6.80;;;25.80;99.90;;;;;;6221495;28;89080;-70
2023/08/19 12:30:53;;;;;;;7.80;7.10;;;25.80;99.90;;;;;;6207104;28;89542;-70
2023/08/19 12:33:55;;;;;;;7.78;7.15;;;25.80;99.90;;;;;;6225133;28;88433;-70
2023/08/19 12:36:59;;;;;;;7.40;6.80;;;25.80;99.90;;;;;;6220018;28;89238;-69
2023/08/19 12:40:03;;;;;;;7.68;7.05;;;25.80;99.90;;;;;;6210514;28;89080;-70
2023/08/19 12:43:05;;;;;;;7.22;6.65;;;25.80;99.90;;;;;;6206022;28;89923;-70
2023/08/19 12:46:07;;;;;;;6.90;6.40;;;25.80;99.90;;;;;;6226827;28;87975;-70
2023/08/19 12:49:09;;;;;;;6.75;6.25;;;25.80;99.90;;;;;;6216175;28;89289;-70
2023/08/19 12:52:13;;;;;;;7.45;6.82;;;25.80;99.90;;;;;;6212244;28;89721;-70
2023/08/19 12:55:15;;;;;;;7.50;6.90;;;25.80;99.90;;;;;;6218906;28;90413;-70
2023/08/19 12:58:17;;;;;;;7.07;6.53;;;25.80;99.90;;;;;;6209417;28;89136;-70
2023/08/19 13:01:19;;;;;;;7.90;7.30;;;25.80;99.90;;;;;;6228090;28;89057;-70
2023/08/19 13:04:21;;;;;;;7.28;6.68;;;25.80;99.90;;;;;;6223650;28;88509;-70
2023/08/19 13:07:25;;;;;;;6.93;6.43;;;25.80;99.90;;;;;;6217744;28;89009;-70
2023/08/19 13:10:27;;;;;;;7.18;6.57;;;25.80;99.90;;;;;;6230116;28;88997;-70
2023/08/19 13:13:29;;;;;;;7.43;6.82;;;25.80;99.90;;;;;;6211938;28;90209;-70
2023/08/19 13:16:31;;;;;;;6.68;6.18;;;25.90;99.90;;;;;;6214123;28;89042;-70
2023/08/19 13:19:33;;;;;;;6.97;6.38;;;25.80;99.90;;;;;;6217854;28;89087;-70
2023/08/19 13:22:36;;;;;;;7.00;6.40;;;25.80;99.90;;;;;;6217990;28;88011;-70
2023/08/19 13:25:38;;;;;;;7.13;6.57;;;25.80;99.90;;;;;;6211918;28;89363;-70
2023/08/19 13:28:40;;;;;;;7.10;6.60;;;25.80;99.90;;;;;;6222672;28;89047;-70
2023/08/19 13:31:42;;;;;;;7.18;6.57;;;25.90;99.90;;;;;;6213809;28;89092;-70
2023/08/19 13:34:44;;;;;;;6.80;6.30;;;25.90;99.90;;;;;;6220560;28;89043;-70
2023/08/19 13:37:48;;;;;;;7.07;6.57;;;25.80;99.90;;;;;;6216725;28;89131;-70
2023/08/19 13:40:50;;;;;;;6.82;6.32;;;25.90;99.90;;;;;;6216204;28;89327;-70
2023/08/19 13:43:52;;;;;;;7.07;6.47;;;25.90;99.90;;;;;;6222608;28;90024;-70
2023/08/19 13:46:53;;;;;;;6.90;6.32;;;25.90;99.90;;;;;;6208397;28;88976;-71
2023/08/19 13:49:55;;;;;;;7.03;6.53;;;25.90;99.90;;;;;;6221409;28;87961;-70
2023/08/19 13:52:59;;;;;;;7.10;6.57;;;25.90;99.90;;;;;;6228190;28;89005;-71
2023/08/19 13:56:01;;;;;;;7.30;6.80;;;25.90;99.90;;;;;;6229688;28;88170;-70
2023/08/19 13:59:03;;;;;;;7.53;6.50;;;25.90;99.90;;;;;;6225643;28;89135;-70
2023/08/19 14:02:05;;;;;;;7.00;6.50;;;25.90;99.90;;;;;;6220306;28;89406;-70
2023/08/19 14:05:09;;;;;;;6.63;6.13;;;25.90;99.90;;;;;;6224480;28;88313;-70
2023/08/19 14:08:12;;;;;;;7.10;6.45;;;25.90;99.90;;;;;;6226415;28;89388;-71
2023/08/19 14:11:14;;;;;;;6.55;6.05;;;25.90;99.90;;;;;;6229481;28;89032;-70
2023/08/19 14:14:16;;;;;;;6.65;6.15;;;25.90;99.90;;;;;;6239034;27;88910;-71
2023/08/19 14:17:18;;;;;;;6.53;6.03;;;25.90;99.90;;;;;;6222513;28;89037;-70
2023/08/19 14:20:20;;;;;;;6.90;6.40;;;25.90;99.90;;;;;;6229403;28;89131;-71
2023/08/19 14:23:24;;;;;;;7.00;6.50;;;25.90;99.90;;;;;;6212551;28;89151;-70
2023/08/19 14:26:28;;;;;;;7.40;6.80;;;25.90;99.90;;;;;;6216966;28;89150;-70
2023/08/19 14:29:30;;;;;;;7.28;6.78;;;25.90;99.90;;;;;;6226505;28;88793;-70
2023/08/19 14:32:32;;;;;;;7.28;6.72;;;25.90;99.90;;;;;;6223964;28;89387;-70
2023/08/19 14:35:34;;;;;;;7.55;6.95;;;25.90;99.90;;;;;;6219157;28;88311;-71
2023/08/19 14:38:37;;;;;;;6.93;6.32;;;25.90;99.90;;;;;;6208210;28;89024;-70
2023/08/19 14:41:39;;;;;;;6.95;6.45;;;25.90;99.90;;;;;;6219588;28;89135;-70
2023/08/19 14:44:41;;;;;;;6.70;6.20;;;25.90;99.90;;;;;;6228757;28;90098;-71
2023/08/19 14:47:43;;;;;;;6.88;6.38;;;25.90;99.90;;;;;;6211619;28;89121;-71
2023/08/19 14:50:45;;;;;;;7.05;6.45;;;26.00;99.90;;;;;;6221514;28;89131;-70
2023/08/19 14:53:49;;;;;;;7.18;6.68;;;25.90;99.90;;;;;;6218422;28;88209;-70
2023/08/19 14:56:51;;;;;;;6.72;6.22;;;26.00;99.90;;;;;;6216993;28;89557;-71
2023/08/19 14:59:54;;;;;;;7.43;6.82;;;25.90;99.90;;;;;;6219937;28;89150;-71
2023/08/19 15:02:57;;;;;;;7.00;6.47;;;25.90;99.90;;;;;;6214079;28;90336;-71
2023/08/19 15:06:00;;;;;;;7.10;6.60;;;25.90;99.90;;;;;;6212323;28;88721;-69
2023/08/19 15:09:12;;;;;;;7.45;6.85;;;25.90;99.90;;;;;;6234665;28;89039;-72
2023/08/19 15:12:14;;;;;;;6.90;6.25;;;26.00;99.90;;;;;;6227283;28;89146;-73
2023/08/19 15:15:17;;;;;;;7.45;6.60;;;26.00;99.90;;;;;;6230214;28;90204;-72
2023/08/19 15:18:19;;;;;;;7.68;7.00;;;26.00;99.90;;;;;;6225957;28;89059;-72
2023/08/19 15:21:22;;;;;;;7.50;6.80;;;26.00;99.90;;;;;;6227452;28;88747;-71
2023/08/19 15:24:25;;;;;;;8.10;7.05;;;26.00;99.90;;;;;;6231797;28;89488;-72
2023/08/19 15:27:27;;;;;;;126.00;45.63;;;26.00;99.90;;;;;;6240129;28;89083;-74
2023/08/19 15:30:29;;;;;;;274.27;102.57;;;26.10;99.90;;;;;;6229146;28;88985;-74
2023/08/19 15:33:31;;;;;;;148.38;57.33;;;26.20;99.90;;;;;;6211011;28;89402;-75
2023/08/19 15:36:33;;;;;;;59.35;29.73;;;26.30;99.90;;;;;;6216692;28;89072;-72
2023/08/19 15:39:37;;;;;;;46.20;23.60;;;26.40;99.90;;;;;;6227221;28;89406;-73
2023/08/19 15:42:39;;;;;;;48.17;21.90;;;26.40;99.90;;;;;;6226912;28;89490;-72
2023/08/19 15:45:41;;;;;;;44.85;21.88;;;26.40;99.90;;;;;;6218662;28;90006;-72
2023/08/19 15:48:43;;;;;;;37.42;20.42;;;26.50;99.90;;;;;;6220044;28;89048;-73
2023/08/19 15:51:45;;;;;;;34.33;20.27;;;26.60;99.90;;;;;;6224932;28;88850;-75